United Spirit — ELYB2 — position and weather

sailwx.info

Track history (hours):
 
Tides and Currents Weather Stations Pressure Air Temp Water Temp Dewpoint Dewpoint Depression Visibility Wind Speed Wind Dir Waves Ship Positions

United Spirit

Last reported at 2015-Aug-29 15:34 UTC. Time now 2015-Aug-30 19:58 UTC.
Position N 35°08' E 139°44'.

Type: Cargo ship. MMSI: 636011280.

Date/timePositionNaut miles runAvg speedWind from/ knotsBaromVisibWave heightAir tempDewpointWater temp
2015-Aug-29 15:34N 35°08' E 139°44'1212.2
2015-Aug-29 14:34N 35°20' E 139°42'7 7.1
2015-Aug-29 13:32N 35°27' E 139°41'0 0.0
2015-Aug-29 12:32N 35°27' E 139°41'0 0.0
2015-Aug-29 11:32N 35°27' E 139°41'0 0.0
2015-Aug-29 10:32N 35°27' E 139°41'0 0.0
2015-Aug-29 09:32N 35°27' E 139°41'0 0.0
2015-Aug-29 08:32N 35°27' E 139°41'0 0.0
2015-Aug-29 07:32N 35°27' E 139°41'0 0.0
2015-Aug-29 06:32N 35°27' E 139°41'0 0.0
2015-Aug-29 05:32N 35°27' E 139°41'2 2.5
2015-Aug-29 04:33N 35°25' E 139°43'1010.1
2015-Aug-29 03:33N 35°16' E 139°47'10 9.3
2015-Aug-29 02:32N 35°06' E 139°46'1110.7
2015-Aug-29 01:33N 34°56' E 139°41'1616.4
2015-Aug-29 00:33N 34°41' E 139°47'6 0.3
2015-Aug-28 06:11N 34°40' E 139°40'3 2.7
2015-Aug-28 05:12N 34°40' E 139°43'3 2.9
2015-Aug-28 04:17N 34°40' E 139°47'7 3.0
2015-Aug-28 02:04N 34°39' E 139°55'  
Track history (hours):
 
Tides and Currents Weather Stations Pressure Air Temp Water Temp Dewpoint Dewpoint Depression Visibility Wind Speed Wind Dir Waves Ship Positions

United Spirit

Last reported at 2015-Aug-29 15:34 UTC. Time now 2015-Aug-30 19:58 UTC.
Position N 35°08' E 139°44'.

Type: Cargo ship. MMSI: 636011280.

Date/timePositionNaut miles runAvg speedWind from/ knotsBaromVisibWave heightAir tempDewpointWater temp
2015-Aug-29 15:34N 35°08' E 139°44'1212.2
2015-Aug-29 14:34N 35°20' E 139°42'7 7.1
2015-Aug-29 13:32N 35°27' E 139°41'0 0.0
2015-Aug-29 12:32N 35°27' E 139°41'0 0.0
2015-Aug-29 11:32N 35°27' E 139°41'0 0.0
2015-Aug-29 10:32N 35°27' E 139°41'0 0.0
2015-Aug-29 09:32N 35°27' E 139°41'0 0.0
2015-Aug-29 08:32N 35°27' E 139°41'0 0.0
2015-Aug-29 07:32N 35°27' E 139°41'0 0.0
2015-Aug-29 06:32N 35°27' E 139°41'0 0.0
2015-Aug-29 05:32N 35°27' E 139°41'2 2.5
2015-Aug-29 04:33N 35°25' E 139°43'1010.1
2015-Aug-29 03:33N 35°16' E 139°47'10 9.3
2015-Aug-29 02:32N 35°06' E 139°46'1110.7
2015-Aug-29 01:33N 34°56' E 139°41'1616.4
2015-Aug-29 00:33N 34°41' E 139°47'6 0.3
2015-Aug-28 06:11N 34°40' E 139°40'3 2.7
2015-Aug-28 05:12N 34°40' E 139°43'3 2.9
2015-Aug-28 04:17N 34°40' E 139°47'7 3.0
2015-Aug-28 02:04N 34°39' E 139°55'  

Dump ship's entire track history